createdAt,value
2018-09-05T00:02:22.526Z,49.30
2018-09-05T00:04:50.783Z,50.07
2018-09-05T00:07:19.063Z,49.17
2018-09-05T00:09:47.315Z,49.87
2018-09-05T00:12:15.559Z,51.37
2018-09-05T00:14:43.837Z,48.50
2018-09-05T00:17:12.068Z,51.23
2018-09-05T00:19:40.323Z,48.67
2018-09-05T00:22:08.550Z,49.93
2018-09-05T00:24:36.815Z,48.33
2018-09-05T00:27:05.442Z,47.07
2018-09-05T00:29:33.715Z,45.87
2018-09-05T00:32:01.963Z,48.40
2018-09-05T00:34:30.307Z,48.90
2018-09-05T00:36:58.571Z,47.20
2018-09-05T00:39:26.842Z,45.00
2018-09-05T00:41:55.093Z,46.17
2018-09-05T00:44:23.404Z,43.30
2018-09-05T00:46:51.684Z,43.17
2018-09-05T00:49:19.962Z,46.33
2018-09-05T00:51:48.202Z,45.50
2018-09-05T00:54:16.446Z,44.23
2018-09-05T00:56:44.711Z,44.83
2018-09-05T00:59:12.979Z,45.77
2018-09-05T01:01:41.210Z,45.40
2018-09-05T01:04:09.666Z,47.10
2018-09-05T01:06:37.940Z,44.67
2018-09-05T01:09:07.450Z,43.87
2018-09-05T01:11:35.751Z,44.77
2018-09-05T01:14:03.978Z,42.00
2018-09-05T01:16:32.227Z,43.33
2018-09-05T01:19:00.488Z,43.27
2018-09-05T01:21:28.737Z,43.37
2018-09-05T01:23:57.070Z,43.97
2018-09-05T01:26:25.707Z,43.30
2018-09-05T01:28:54.017Z,42.40
2018-09-05T01:31:22.282Z,41.30
2018-09-05T01:33:50.652Z,41.77
2018-09-05T01:36:19.241Z,42.93
2018-09-05T01:38:47.502Z,43.10
2018-09-05T01:41:16.000Z,41.40
2018-09-05T01:43:44.558Z,40.23
2018-09-05T01:46:12.870Z,40.67
2018-09-05T01:48:41.148Z,41.40
2018-09-05T01:51:09.426Z,40.60
2018-09-05T01:53:37.654Z,39.07
2018-09-05T01:56:05.950Z,40.07
2018-09-05T01:58:34.228Z,37.03
2018-09-05T02:01:02.503Z,36.07
2018-09-05T02:03:30.867Z,32.87
2018-09-05T02:05:59.111Z,31.47
2018-09-05T02:08:27.426Z,32.07
2018-09-05T02:10:55.670Z,30.70
2018-09-05T02:13:23.923Z,29.37
2018-09-05T02:15:52.197Z,30.50
2018-09-05T02:18:20.432Z,31.10
2018-09-05T02:20:48.672Z,30.87
2018-09-05T02:23:16.940Z,39.63
2018-09-05T02:25:45.183Z,40.13
2018-09-05T02:28:13.443Z,40.57
2018-09-05T02:30:41.683Z,41.73
2018-09-05T02:33:09.947Z,38.37
2018-09-05T02:35:38.171Z,38.60
2018-09-05T02:38:06.443Z,39.57
2018-09-05T02:40:34.790Z,37.33
2018-09-05T02:43:02.946Z,34.77
2018-09-05T02:45:31.215Z,37.30
2018-09-05T02:47:59.461Z,36.13
2018-09-05T02:50:27.718Z,34.43
2018-09-05T02:52:55.993Z,34.10
2018-09-05T02:55:29.754Z,36.40
2018-09-05T02:57:58.012Z,35.97
2018-09-05T03:00:26.281Z,37.87
2018-09-05T03:02:54.757Z,34.50
2018-09-05T03:05:23.027Z,36.07
2018-09-05T03:07:51.290Z,36.77
2018-09-05T03:10:19.596Z,34.43
2018-09-05T03:12:47.893Z,34.53
2018-09-05T03:15:16.153Z,35.47
2018-09-05T03:17:45.045Z,34.80
2018-09-05T03:20:14.082Z,37.60
2018-09-05T03:22:42.362Z,33.67
2018-09-05T03:25:10.715Z,36.73
2018-09-05T03:27:38.993Z,36.97
2018-09-05T03:30:07.288Z,35.90
2018-09-05T03:32:35.687Z,39.30
2018-09-05T03:35:03.825Z,37.17
2018-09-05T03:37:32.092Z,37.20
2018-09-05T03:40:00.391Z,37.67
2018-09-05T03:42:28.688Z,37.37
2018-09-05T03:44:56.960Z,37.40
2018-09-05T03:47:25.304Z,39.30
2018-09-05T03:49:53.625Z,38.03
2018-09-05T03:52:21.839Z,38.37
2018-09-05T03:54:50.188Z,38.07
2018-09-05T03:57:18.446Z,37.27
2018-09-05T03:59:46.684Z,39.63
2018-09-05T04:02:14.957Z,39.50
2018-09-05T04:04:43.210Z,38.30
2018-09-05T04:07:11.495Z,38.13
2018-09-05T04:09:39.775Z,41.30
2018-09-05T04:12:08.046Z,35.97
2018-09-05T04:14:36.344Z,36.90
2018-09-05T04:17:04.605Z,36.90
2018-09-05T04:19:32.854Z,35.63
2018-09-05T04:22:01.177Z,33.90
2018-09-05T04:24:29.531Z,34.47
2018-09-05T04:26:57.799Z,37.00
2018-09-05T04:29:26.088Z,37.10
2018-09-05T04:31:54.299Z,34.90
2018-09-05T04:34:22.554Z,33.90
2018-09-05T04:36:50.809Z,36.33
2018-09-05T04:39:19.083Z,37.90
2018-09-05T04:41:47.351Z,37.40
2018-09-05T04:44:15.609Z,36.87
2018-09-05T04:46:43.869Z,37.73
2018-09-05T04:49:12.110Z,36.67
2018-09-05T04:51:40.367Z,36.47
2018-09-05T04:54:08.643Z,35.90
2018-09-05T04:56:36.948Z,35.53
2018-09-05T04:59:05.287Z,36.70
2018-09-05T05:01:33.577Z,35.97
2018-09-05T05:04:01.852Z,35.80
2018-09-05T05:06:30.112Z,37.53
2018-09-05T05:08:58.385Z,37.17
2018-09-05T05:11:26.675Z,38.67
2018-09-05T05:13:55.005Z,37.93
2018-09-05T05:16:23.274Z,38.20
2018-09-05T05:18:51.603Z,40.97
2018-09-05T05:21:19.845Z,41.70
2018-09-05T05:23:48.206Z,40.33
2018-09-05T05:26:16.455Z,41.30
2018-09-05T05:28:44.775Z,41.93
2018-09-05T05:31:13.077Z,39.37
2018-09-05T05:33:41.293Z,42.10
2018-09-05T05:36:09.619Z,40.10
2018-09-05T05:38:38.197Z,40.37
2018-09-05T05:41:06.473Z,42.03
2018-09-05T05:43:34.817Z,42.77
2018-09-05T05:46:03.136Z,40.40
2018-09-05T05:48:31.403Z,41.10
2018-09-05T05:50:59.682Z,44.60
2018-09-05T05:53:28.099Z,47.13
2018-09-05T05:55:56.386Z,43.60
2018-09-05T05:58:24.623Z,45.60
2018-09-05T06:00:52.909Z,41.37
2018-09-05T06:03:21.156Z,41.50
2018-09-05T06:05:49.464Z,42.50
2018-09-05T06:08:17.723Z,40.83
2018-09-05T06:10:45.992Z,44.33
2018-09-05T06:13:14.222Z,42.10
2018-09-05T06:15:42.470Z,42.43
2018-09-05T06:18:10.745Z,41.50
2018-09-05T06:20:38.974Z,42.77
2018-09-05T06:23:07.274Z,43.43
2018-09-05T06:25:35.493Z,44.30
2018-09-05T06:28:03.771Z,42.07
2018-09-05T06:30:32.173Z,41.57
2018-09-05T06:33:00.289Z,42.00
2018-09-05T06:35:28.526Z,43.60
2018-09-05T06:37:56.778Z,40.10
2018-09-05T06:40:25.048Z,40.73
2018-09-05T06:42:53.330Z,41.23
2018-09-05T06:45:21.762Z,39.00
2018-09-05T06:47:50.019Z,38.33
2018-09-05T06:50:18.267Z,40.47
2018-09-05T06:52:46.608Z,40.53
2018-09-05T06:55:14.847Z,40.10
2018-09-05T06:57:43.116Z,43.87
2018-09-05T07:00:12.095Z,41.73
2018-09-05T07:02:40.376Z,40.60
2018-09-05T07:05:08.746Z,43.70
2018-09-05T07:07:37.067Z,43.00
2018-09-05T07:10:05.393Z,39.97
2018-09-05T07:12:33.583Z,43.73
2018-09-05T07:15:01.904Z,39.80
2018-09-05T07:17:30.212Z,41.23
2018-09-05T07:19:58.891Z,40.60
2018-09-05T07:22:27.178Z,40.50
2018-09-05T07:24:55.469Z,41.10
2018-09-05T07:27:23.729Z,38.63
2018-09-05T07:29:52.009Z,38.50
2018-09-05T07:32:20.363Z,37.93
2018-09-05T07:34:48.608Z,39.47
2018-09-05T07:37:16.853Z,36.20
2018-09-05T07:39:45.143Z,36.87
2018-09-05T07:42:13.382Z,35.00
2018-09-05T07:44:41.835Z,38.43
2018-09-05T07:47:10.137Z,37.77
2018-09-05T07:49:38.383Z,33.40
2018-09-05T07:52:06.654Z,39.27
2018-09-05T07:54:34.904Z,38.40
2018-09-05T07:57:03.171Z,31.77
2018-09-05T07:59:31.448Z,32.20
2018-09-05T08:01:59.725Z,39.90
2018-09-05T08:04:28.044Z,39.07
2018-09-05T08:06:56.300Z,37.33
2018-09-05T08:09:24.571Z,39.80
2018-09-05T08:11:52.894Z,38.80
2018-09-05T08:14:21.229Z,40.27
2018-09-05T08:16:49.430Z,41.10
2018-09-05T08:19:17.708Z,38.47
2018-09-05T08:21:45.961Z,43.30
2018-09-05T08:24:14.324Z,40.40
2018-09-05T08:26:42.531Z,38.73
2018-09-05T08:29:10.828Z,32.17
2018-09-05T08:31:39.072Z,40.30
2018-09-05T08:34:07.317Z,26.17
2018-09-05T08:36:35.847Z,39.27
2018-09-05T08:39:06.718Z,39.90
2018-09-05T08:41:35.030Z,39.50
2018-09-05T08:44:03.468Z,40.57
2018-09-05T08:46:31.661Z,39.10
2018-09-05T08:48:59.941Z,38.33
2018-09-05T08:51:28.179Z,40.13
2018-09-05T08:53:56.751Z,38.53
2018-09-05T08:56:25.085Z,38.43
2018-09-05T08:58:53.361Z,38.33
2018-09-05T09:01:21.631Z,38.23
2018-09-05T09:03:49.925Z,37.77
2018-09-05T09:06:18.207Z,38.57
2018-09-05T09:08:46.448Z,39.37
2018-09-05T09:11:14.719Z,40.07
2018-09-05T09:13:43.089Z,38.60
2018-09-05T09:16:11.355Z,39.10
2018-09-05T09:18:39.664Z,38.90
2018-09-05T09:21:09.054Z,36.60
2018-09-05T09:23:37.324Z,38.23
2018-09-05T09:26:06.067Z,37.87
2018-09-05T09:28:34.659Z,37.83
2018-09-05T09:31:02.980Z,38.83
2018-09-05T09:33:31.227Z,38.57
2018-09-05T09:35:59.564Z,39.47
2018-09-05T09:38:27.810Z,39.13
2018-09-05T09:40:56.059Z,38.27
2018-09-05T09:43:24.504Z,36.73
2018-09-05T09:45:52.805Z,37.20
2018-09-05T09:48:21.071Z,35.43
2018-09-05T09:50:49.320Z,35.50
2018-09-05T09:53:17.592Z,37.23
2018-09-05T09:55:45.952Z,35.47
2018-09-05T09:58:14.176Z,35.13
2018-09-05T10:00:47.860Z,35.97
2018-09-05T10:03:21.640Z,34.50
2018-09-05T10:05:55.282Z,34.43
2018-09-05T10:08:29.055Z,32.63
2018-09-05T10:11:02.603Z,32.17
2018-09-05T10:13:36.372Z,31.97
2018-09-05T10:16:10.072Z,31.60
2018-09-05T10:18:39.952Z,31.07
2018-09-05T10:21:08.261Z,33.27
2018-09-05T10:23:36.492Z,33.27
2018-09-05T10:26:04.764Z,32.97
2018-09-05T10:28:33.033Z,34.60
2018-09-05T10:31:01.327Z,32.90
2018-09-05T10:33:29.584Z,35.93
2018-09-05T10:35:57.840Z,35.77
2018-09-05T10:38:26.076Z,33.40
2018-09-05T10:40:54.353Z,33.40
2018-09-05T10:43:22.671Z,34.30
2018-09-05T10:45:50.937Z,31.43
2018-09-05T10:48:19.219Z,33.10
2018-09-05T10:50:47.459Z,31.90
2018-09-05T10:53:15.718Z,33.30
2018-09-05T10:55:43.986Z,35.43
2018-09-05T10:58:12.274Z,32.77
2018-09-05T11:00:40.545Z,31.77
2018-09-05T11:03:09.014Z,31.20
2018-09-05T11:05:37.297Z,32.80
2018-09-05T11:08:05.874Z,30.53
2018-09-05T11:10:34.187Z,29.40
2018-09-05T11:13:02.402Z,34.50
2018-09-05T11:15:30.662Z,32.53
2018-09-05T11:17:58.910Z,30.80
2018-09-05T11:20:27.158Z,29.13
2018-09-05T11:22:55.423Z,29.00
2018-09-05T11:25:23.655Z,30.27
2018-09-05T11:27:51.930Z,28.27
2018-09-05T11:30:20.174Z,25.50
2018-09-05T11:32:48.442Z,28.33
2018-09-05T11:35:16.891Z,28.90
2018-09-05T11:37:45.153Z,30.80
2018-09-05T11:40:13.456Z,27.30
2018-09-05T11:42:41.822Z,29.87
2018-09-05T11:45:10.197Z,29.97
2018-09-05T11:47:38.500Z,28.30
2018-09-05T11:50:06.945Z,25.67
2018-09-05T11:52:35.189Z,27.30
2018-09-05T11:55:03.541Z,29.37
2018-09-05T11:57:31.794Z,24.00
2018-09-05T12:00:00.037Z,26.07
2018-09-05T12:02:28.304Z,24.83
2018-09-05T12:04:56.795Z,27.83
2018-09-05T12:07:25.043Z,25.67
2018-09-05T12:09:53.299Z,25.00
2018-09-05T12:12:21.607Z,26.87
2018-09-05T12:14:49.848Z,25.80
2018-09-05T12:17:18.128Z,24.67
2018-09-05T12:19:46.367Z,25.90
2018-09-05T12:22:14.632Z,23.33
2018-09-05T12:24:42.848Z,23.00
2018-09-05T12:27:11.099Z,24.70
2018-09-05T12:29:39.343Z,24.70
2018-09-05T12:32:07.623Z,24.73
2018-09-05T12:34:35.933Z,22.83
2018-09-05T12:37:04.191Z,23.07
2018-09-05T12:39:32.501Z,23.67
2018-09-05T12:42:00.738Z,23.93
2018-09-05T12:44:29.043Z,23.50
2018-09-05T12:47:00.292Z,23.13
2018-09-05T12:49:28.564Z,24.83
2018-09-05T12:51:56.795Z,23.10
2018-09-05T12:54:25.071Z,24.03
2018-09-05T12:56:53.328Z,21.47
2018-09-05T12:59:21.620Z,20.67
2018-09-05T13:01:49.861Z,19.30
2018-09-05T13:04:18.150Z,19.30
2018-09-05T13:06:46.432Z,20.50
2018-09-05T13:09:14.791Z,19.87
2018-09-05T13:11:43.532Z,19.43
2018-09-05T13:14:11.835Z,18.43
2018-09-05T13:16:40.117Z,17.03
2018-09-05T13:19:08.358Z,16.37
2018-09-05T13:21:36.620Z,14.20
2018-09-05T13:24:04.881Z,14.67
2018-09-05T13:26:33.184Z,14.40
2018-09-05T13:29:01.451Z,11.90
2018-09-05T13:31:29.740Z,13.73
2018-09-05T13:33:58.267Z,12.43
2018-09-05T13:36:26.531Z,12.23
2018-09-05T13:38:54.815Z,11.00
2018-09-05T13:41:23.135Z,13.47
2018-09-05T13:43:51.412Z,12.60
2018-09-05T13:46:19.667Z,13.10
2018-09-05T13:48:47.895Z,12.37
2018-09-05T13:51:16.226Z,13.37
2018-09-05T13:53:44.482Z,10.63
2018-09-05T13:56:12.749Z,10.97
2018-09-05T13:58:41.067Z,9.97
2018-09-05T14:01:09.310Z,10.40
2018-09-05T14:03:37.611Z,9.07
2018-09-05T14:06:05.880Z,8.73
2018-09-05T14:08:34.119Z,8.13
2018-09-05T14:11:02.394Z,8.27
2018-09-05T14:13:30.769Z,8.00
2018-09-05T14:15:58.993Z,8.40
2018-09-05T14:18:27.278Z,7.90
2018-09-05T14:20:55.523Z,7.40
2018-09-05T14:23:23.784Z,8.00
2018-09-05T14:25:52.040Z,7.20
2018-09-05T14:28:20.287Z,7.97
2018-09-05T14:30:48.590Z,6.93
2018-09-05T14:33:16.868Z,6.93
2018-09-05T14:35:45.104Z,6.83
2018-09-05T14:38:13.391Z,7.63
2018-09-05T14:40:41.622Z,8.53
2018-09-05T14:43:09.903Z,6.97
2018-09-05T14:45:38.207Z,6.80
2018-09-05T14:48:06.454Z,6.83
2018-09-05T14:50:34.679Z,7.03
2018-09-05T14:53:02.953Z,6.27
2018-09-05T14:55:31.216Z,7.03
2018-09-05T14:57:59.480Z,6.60
2018-09-05T15:00:27.738Z,6.80
2018-09-05T15:02:55.993Z,5.80
2018-09-05T15:05:24.255Z,7.53
2018-09-05T15:07:52.563Z,7.30
2018-09-05T15:10:20.798Z,7.40
2018-09-05T15:12:49.059Z,7.57
2018-09-05T15:15:17.347Z,8.50
2018-09-05T15:17:45.625Z,9.23
2018-09-05T15:20:13.866Z,8.10
2018-09-05T15:22:42.339Z,10.60
2018-09-05T15:25:10.880Z,10.33
2018-09-05T15:27:39.170Z,8.90
2018-09-05T15:30:08.287Z,9.90
2018-09-05T15:32:36.551Z,9.33
2018-09-05T15:35:05.167Z,10.03
2018-09-05T15:37:33.418Z,9.67
2018-09-05T15:40:01.732Z,9.70
2018-09-05T15:42:29.996Z,9.50
2018-09-05T15:44:58.229Z,8.27
2018-09-05T15:47:26.487Z,8.77
2018-09-05T15:49:54.746Z,9.07
2018-09-05T15:52:23.003Z,10.60
2018-09-05T15:54:51.338Z,9.43
2018-09-05T15:57:19.649Z,8.93
2018-09-05T15:59:47.939Z,9.00
2018-09-05T16:02:16.168Z,8.90
2018-09-05T16:04:44.415Z,9.23
2018-09-05T16:07:12.672Z,9.27
2018-09-05T16:09:40.935Z,8.03
2018-09-05T16:12:09.184Z,8.80
2018-09-05T16:14:37.444Z,9.57
2018-09-05T16:17:06.207Z,7.33
2018-09-05T16:19:34.746Z,8.67
2018-09-05T16:22:03.855Z,7.97
2018-09-05T16:24:32.279Z,8.57
2018-09-05T16:27:00.527Z,8.00
2018-09-05T16:29:28.787Z,8.03
2018-09-05T16:31:57.023Z,7.67
2018-09-05T16:34:25.280Z,7.27
2018-09-05T16:36:53.816Z,8.10
2018-09-05T16:39:22.082Z,8.67
2018-09-05T16:41:50.392Z,8.97
2018-09-05T16:44:18.682Z,8.97
2018-09-05T16:46:46.911Z,6.90
2018-09-05T16:49:15.259Z,6.70
2018-09-05T16:51:43.523Z,7.07
2018-09-05T16:54:11.767Z,7.07
2018-09-05T16:56:40.042Z,7.60
2018-09-05T16:59:08.605Z,6.27
2018-09-05T17:01:38.082Z,6.80
2018-09-05T17:04:07.321Z,7.47
2018-09-05T17:06:35.588Z,7.57
2018-09-05T17:09:04.811Z,7.70
2018-09-05T17:11:33.092Z,7.00
2018-09-05T17:14:01.371Z,7.00
2018-09-05T17:16:29.611Z,7.90
2018-09-05T17:18:57.863Z,7.70
2018-09-05T17:21:26.119Z,8.57
2018-09-05T17:23:54.420Z,7.50
2018-09-05T17:26:22.693Z,7.07
2018-09-05T17:28:50.960Z,7.63
2018-09-05T17:31:19.248Z,8.37
2018-09-05T17:33:48.509Z,7.50
2018-09-05T17:36:16.802Z,7.90
2018-09-05T17:38:45.109Z,8.10
2018-09-05T17:41:13.753Z,7.07
2018-09-05T17:43:44.624Z,7.70
2018-09-05T17:46:13.453Z,7.70
2018-09-05T17:48:42.195Z,8.10
2018-09-05T17:51:11.019Z,7.07
2018-09-05T17:53:39.652Z,8.50
2018-09-05T17:56:08.391Z,7.17
2018-09-05T17:58:37.007Z,7.13
2018-09-05T18:01:06.423Z,7.73
2018-09-05T18:03:34.983Z,7.20
2018-09-05T18:06:03.652Z,8.10
2018-09-05T18:08:32.215Z,8.67
2018-09-05T18:11:00.439Z,7.50
2018-09-05T18:13:28.736Z,7.80
2018-09-05T18:15:57.016Z,7.03
2018-09-05T18:18:25.289Z,6.80
2018-09-05T18:20:53.510Z,7.50
2018-09-05T18:23:21.774Z,9.03
2018-09-05T18:25:50.206Z,8.43
2018-09-05T18:28:19.061Z,8.37
2018-09-05T18:30:47.387Z,8.30
2018-09-05T18:33:15.653Z,9.00
2018-09-05T18:35:43.914Z,8.33
2018-09-05T18:38:12.201Z,7.97
2018-09-05T18:40:40.426Z,9.43
2018-09-05T18:43:08.670Z,8.53
2018-09-05T18:45:36.919Z,7.53
2018-09-05T18:48:05.283Z,7.87
2018-09-05T18:50:33.539Z,7.73
2018-09-05T18:53:07.078Z,7.27
2018-09-05T18:55:35.363Z,7.00
2018-09-05T18:58:03.702Z,8.17
2018-09-05T19:00:32.492Z,8.00
2018-09-05T19:03:00.826Z,9.00
2018-09-05T19:05:29.313Z,8.50
2018-09-05T19:07:57.533Z,10.80
2018-09-05T19:10:26.682Z,10.03
2018-09-05T19:12:55.543Z,10.87
2018-09-05T19:15:24.250Z,10.23
2018-09-05T19:17:52.530Z,10.30
2018-09-05T19:20:20.809Z,10.80
2018-09-05T19:22:49.076Z,10.07
2018-09-05T19:25:17.292Z,11.37
2018-09-05T19:27:45.518Z,10.90
2018-09-05T19:30:13.783Z,10.90
2018-09-05T19:32:42.044Z,11.40
2018-09-05T19:35:10.272Z,11.10
2018-09-05T19:37:38.944Z,12.00
2018-09-05T19:40:07.584Z,16.33
2018-09-05T19:42:36.775Z,23.37
2018-09-05T19:45:05.985Z,33.50
2018-09-05T19:47:34.634Z,19.80
2018-09-05T19:50:03.341Z,22.43
2018-09-05T19:52:32.007Z,19.30
2018-09-05T19:55:00.307Z,16.57
2018-09-05T19:57:28.618Z,14.07
2018-09-05T19:59:56.894Z,15.17
2018-09-05T20:02:25.183Z,21.30
2018-09-05T20:04:53.670Z,15.23
2018-09-05T20:07:21.995Z,14.97
2018-09-05T20:09:50.266Z,13.63
2018-09-05T20:12:18.513Z,13.20
2018-09-05T20:14:46.958Z,13.33
2018-09-05T20:17:15.206Z,13.17
2018-09-05T20:19:43.510Z,11.80
2018-09-05T20:22:12.123Z,11.10
2018-09-05T20:24:40.432Z,13.47
2018-09-05T20:27:09.196Z,11.70
2018-09-05T20:29:37.508Z,13.90
2018-09-05T20:32:06.244Z,11.83
2018-09-05T20:34:34.580Z,13.07
2018-09-05T20:37:02.942Z,13.43
2018-09-05T20:39:31.215Z,14.50
2018-09-05T20:41:59.529Z,14.37
2018-09-05T20:44:27.919Z,14.50
2018-09-05T20:46:56.178Z,15.13
2018-09-05T20:49:24.457Z,15.77
2018-09-05T20:51:52.740Z,15.87
2018-09-05T20:54:21.033Z,26.80
2018-09-05T20:56:49.279Z,48.37
2018-09-05T20:59:17.552Z,23.73
2018-09-05T21:01:45.824Z,16.17
2018-09-05T21:04:14.095Z,17.30
2018-09-05T21:06:42.363Z,17.33
2018-09-05T21:09:10.644Z,17.57
2018-09-05T21:11:38.941Z,17.50
2018-09-05T21:14:07.243Z,16.83
2018-09-05T21:16:35.987Z,16.40
2018-09-05T21:19:04.279Z,15.80
2018-09-05T21:21:32.534Z,17.67
2018-09-05T21:24:00.779Z,18.53
2018-09-05T21:26:29.062Z,16.90
2018-09-05T21:28:57.308Z,17.80
2018-09-05T21:31:25.527Z,16.50
2018-09-05T21:33:53.819Z,17.37
2018-09-05T21:36:22.205Z,17.70
2018-09-05T21:38:50.343Z,20.07
2018-09-05T21:41:18.617Z,17.50
2018-09-05T21:43:46.955Z,18.30
2018-09-05T21:46:15.211Z,17.20
2018-09-05T21:48:43.478Z,17.57
2018-09-05T21:51:11.711Z,16.83
2018-09-05T21:53:39.975Z,17.20
2018-09-05T21:56:08.219Z,17.40
2018-09-05T21:58:36.502Z,17.47
2018-09-05T22:01:04.780Z,18.10
2018-09-05T22:03:33.053Z,16.63
2018-09-05T22:06:01.290Z,17.20
2018-09-05T22:08:29.535Z,19.50
2018-09-05T22:11:02.079Z,17.17
2018-09-05T22:13:30.442Z,17.07
2018-09-05T22:15:58.620Z,16.03
2018-09-05T22:18:26.887Z,19.37
2018-09-05T22:20:55.132Z,17.10
2018-09-05T22:23:23.373Z,17.37
2018-09-05T22:25:51.650Z,18.53
2018-09-05T22:28:19.911Z,18.57
2018-09-05T22:30:48.144Z,17.87
2018-09-05T22:33:16.419Z,17.27
2018-09-05T22:35:44.691Z,17.87
2018-09-05T22:38:12.959Z,16.30
2018-09-05T22:40:46.624Z,16.70
2018-09-05T22:43:26.409Z,14.90
2018-09-05T22:46:06.084Z,16.40
2018-09-05T22:48:49.519Z,16.30
2018-09-05T22:53:39.172Z,15.40
2018-09-05T22:58:22.640Z,15.60
2018-09-05T23:04:02.282Z,15.87
2018-09-05T23:08:42.566Z,16.50
2018-09-05T23:11:22.867Z,16.83
2018-09-05T23:14:02.315Z,15.27
2018-09-05T23:16:42.040Z,17.33
2018-09-05T23:19:32.233Z,19.40
2018-09-05T23:22:00.584Z,19.33
2018-09-05T23:24:28.832Z,19.20
2018-09-05T23:26:57.120Z,19.13
2018-09-05T23:29:25.384Z,20.20
2018-09-05T23:31:53.635Z,20.80
2018-09-05T23:34:22.010Z,20.03
2018-09-05T23:36:50.257Z,20.13
2018-09-05T23:39:18.545Z,19.50
2018-09-05T23:41:46.812Z,18.00
2018-09-05T23:44:15.059Z,19.00
2018-09-05T23:46:43.346Z,19.20
2018-09-05T23:49:11.594Z,20.47
2018-09-05T23:51:39.863Z,19.40
2018-09-05T23:54:08.108Z,19.00
2018-09-05T23:56:36.404Z,17.70
2018-09-05T23:59:06.533Z,19.57
